createdAt,value
2022-12-13T00:00:10.352Z,76.95
2022-12-13T00:02:37.414Z,89.55
2022-12-13T00:05:04.622Z,81.13
2022-12-13T00:07:31.691Z,81.80
2022-12-13T00:09:58.698Z,86.75
2022-12-13T00:12:25.714Z,91.43
2022-12-13T00:14:52.723Z,86.85
2022-12-13T00:17:20.306Z,84.55
2022-12-13T00:19:47.638Z,90.18
2022-12-13T00:22:14.849Z,89.30
2022-12-13T00:24:46.012Z,86.30
2022-12-13T00:27:13.358Z,99.63
2022-12-13T00:29:40.503Z,89.82
2022-12-13T00:32:07.701Z,91.70
2022-12-13T00:34:34.847Z,89.95
2022-12-13T00:37:01.930Z,92.55
2022-12-13T00:39:29.116Z,87.03
2022-12-13T00:41:56.149Z,87.95
2022-12-13T00:44:23.137Z,94.78
2022-12-13T00:46:51.787Z,93.70
2022-12-13T00:49:19.237Z,101.97
2022-12-13T00:51:48.206Z,97.70
2022-12-13T00:54:15.277Z,103.43
2022-12-13T00:56:42.391Z,89.95
2022-12-13T00:59:10.346Z,97.93
2022-12-13T01:01:37.631Z,98.88
2022-12-13T01:04:05.019Z,87.18
2022-12-13T01:06:34.167Z,94.00
2022-12-13T01:09:01.534Z,91.30
2022-12-13T01:11:28.552Z,93.13
2022-12-13T01:13:55.548Z,90.35
2022-12-13T01:16:22.652Z,92.80
2022-12-13T01:18:49.710Z,81.90
2022-12-13T01:21:17.876Z,93.25
2022-12-13T01:23:44.962Z,87.57
2022-12-13T01:26:13.338Z,89.95
2022-12-13T01:28:40.507Z,79.10
2022-12-13T01:31:08.847Z,89.63
2022-12-13T01:33:36.035Z,83.75
2022-12-13T01:36:03.479Z,82.90
2022-12-13T01:38:30.560Z,87.75
2022-12-13T01:41:00.546Z,85.60
2022-12-13T01:43:42.886Z,93.82
2022-12-13T01:46:10.232Z,89.50
2022-12-13T01:48:39.661Z,87.55
2022-12-13T01:51:06.823Z,83.43
2022-12-13T01:53:34.147Z,84.70
2022-12-13T01:56:08.721Z,80.18
2022-12-13T01:58:35.771Z,91.95
2022-12-13T02:01:02.902Z,81.95
2022-12-13T02:03:30.003Z,84.78
2022-12-13T02:06:00.566Z,81.78
2022-12-13T02:08:28.978Z,77.30
2022-12-13T02:10:56.194Z,76.45
2022-12-13T02:13:23.239Z,76.50
2022-12-13T02:15:54.557Z,89.60
2022-12-13T02:18:40.263Z,76.38
2022-12-13T02:21:28.291Z,80.97
2022-12-13T02:24:01.552Z,106.15
2022-12-13T02:26:52.977Z,84.45
2022-12-13T02:29:30.899Z,69.95
2022-12-13T02:32:28.079Z,78.63
2022-12-13T02:35:06.347Z,74.88
2022-12-13T02:37:36.942Z,84.22
2022-12-13T02:40:06.825Z,82.65
2022-12-13T02:42:42.701Z,80.88
2022-12-13T02:45:20.065Z,88.95
2022-12-13T02:47:47.519Z,75.43
2022-12-13T02:50:14.602Z,82.85
2022-12-13T02:52:42.930Z,88.57
2022-12-13T02:55:12.582Z,79.82
2022-12-13T02:57:40.649Z,88.80
2022-12-13T03:00:30.200Z,76.90
2022-12-13T03:02:57.456Z,74.68
2022-12-13T03:05:55.201Z,90.65
2022-12-13T03:08:26.575Z,93.43
2022-12-13T03:11:03.578Z,88.13
2022-12-13T03:13:50.886Z,85.78
2022-12-13T03:16:22.797Z,89.32
2022-12-13T03:18:50.776Z,80.15
2022-12-13T03:21:17.890Z,88.65
2022-12-13T03:23:45.135Z,86.32
2022-12-13T03:26:13.353Z,81.68
2022-12-13T03:28:40.536Z,79.60
2022-12-13T03:31:07.688Z,81.45
2022-12-13T03:33:34.830Z,83.40
2022-12-13T03:36:02.344Z,78.50
2022-12-13T03:38:29.413Z,84.05
2022-12-13T03:40:57.826Z,81.13
2022-12-13T03:43:24.930Z,80.70
2022-12-13T03:45:52.469Z,82.03
2022-12-13T03:48:22.006Z,74.07
2022-12-13T03:50:50.821Z,74.35
2022-12-13T03:53:22.822Z,67.32
2022-12-13T03:56:00.765Z,76.63
2022-12-13T03:58:35.054Z,75.43
2022-12-13T04:01:03.953Z,70.03
2022-12-13T04:03:30.984Z,64.93
2022-12-13T04:05:58.058Z,71.70
2022-12-13T04:08:25.174Z,71.47
2022-12-13T04:10:52.330Z,72.93
2022-12-13T04:13:34.746Z,64.72
2022-12-13T04:16:02.294Z,75.28
2022-12-13T04:18:29.430Z,71.15
2022-12-13T04:20:57.567Z,64.80
2022-12-13T04:23:24.794Z,73.65
2022-12-13T04:25:51.894Z,67.47
2022-12-13T04:28:22.165Z,76.68
2022-12-13T04:30:53.517Z,64.93
2022-12-13T04:33:21.518Z,64.25
2022-12-13T04:35:48.733Z,63.90
2022-12-13T04:38:15.989Z,71.30
2022-12-13T04:40:43.006Z,60.38
2022-12-13T04:43:10.138Z,57.30
2022-12-13T04:45:37.268Z,65.18
2022-12-13T04:48:04.534Z,60.70
2022-12-13T04:50:31.572Z,67.65
2022-12-13T04:52:58.589Z,64.57
2022-12-13T04:55:25.678Z,67.25
2022-12-13T04:57:52.713Z,66.00
2022-12-13T05:00:22.052Z,63.38
2022-12-13T05:02:49.283Z,66.70
2022-12-13T05:05:16.716Z,60.83
2022-12-13T05:07:44.206Z,70.05
2022-12-13T05:10:11.751Z,67.47
2022-12-13T05:12:38.841Z,81.03
2022-12-13T05:15:06.354Z,66.70
2022-12-13T05:17:33.472Z,69.30
2022-12-13T05:20:00.529Z,68.47
2022-12-13T05:22:30.379Z,73.38
2022-12-13T05:24:57.627Z,75.78
2022-12-13T05:27:26.889Z,72.15
2022-12-13T05:30:02.885Z,71.83
2022-12-13T05:32:43.465Z,75.53
2022-12-13T05:35:22.854Z,76.50
2022-12-13T05:37:53.772Z,70.00
2022-12-13T05:40:21.734Z,75.68
2022-12-13T05:42:48.730Z,71.57
2022-12-13T05:45:16.086Z,74.90
2022-12-13T05:47:43.450Z,84.95
2022-12-13T05:50:10.741Z,81.30
2022-12-13T05:52:37.853Z,83.80
2022-12-13T05:55:05.233Z,78.90
2022-12-13T05:57:32.505Z,103.47
2022-12-13T06:00:01.224Z,84.88
2022-12-13T06:02:28.560Z,86.20
2022-12-13T06:04:55.788Z,80.18
2022-12-13T06:07:22.808Z,81.97
2022-12-13T06:09:49.900Z,82.45
2022-12-13T06:12:32.393Z,86.75
2022-12-13T06:15:01.171Z,70.30
2022-12-13T06:17:32.243Z,76.70
2022-12-13T06:19:59.321Z,72.32
2022-12-13T06:22:26.453Z,68.40
2022-12-13T06:24:53.605Z,67.20
2022-12-13T06:27:21.103Z,70.85
2022-12-13T06:29:48.220Z,75.28
2022-12-13T06:32:15.314Z,72.50
2022-12-13T06:34:42.334Z,76.70
2022-12-13T06:37:09.732Z,66.88
2022-12-13T06:39:36.784Z,70.97
2022-12-13T06:42:06.323Z,69.15
2022-12-13T06:44:33.640Z,77.28
2022-12-13T06:47:10.639Z,81.05
2022-12-13T06:49:39.606Z,86.68
2022-12-13T06:52:07.066Z,70.47
2022-12-13T06:54:34.537Z,75.35
2022-12-13T06:57:02.058Z,77.05
2022-12-13T06:59:29.145Z,76.03
2022-12-13T07:01:56.235Z,85.57
2022-12-13T07:04:31.297Z,89.20
2022-12-13T07:07:01.883Z,86.65
2022-12-13T07:09:32.289Z,87.75
2022-12-13T07:11:59.671Z,83.55
2022-12-13T07:14:26.777Z,94.63
2022-12-13T07:16:59.418Z,101.22
2022-12-13T07:19:35.250Z,87.10
2022-12-13T07:22:03.071Z,105.03
2022-12-13T07:24:30.165Z,100.43
2022-12-13T07:26:57.226Z,106.28
2022-12-13T07:29:24.233Z,106.85
2022-12-13T07:31:51.247Z,102.05
2022-12-13T07:34:18.507Z,102.70
2022-12-13T07:36:45.847Z,110.68
2022-12-13T07:39:12.906Z,111.03
2022-12-13T07:41:39.974Z,108.72
2022-12-13T07:44:07.037Z,116.60
2022-12-13T07:46:34.350Z,98.30
2022-12-13T07:49:04.738Z,105.43
2022-12-13T07:53:58.899Z,99.25
2022-12-13T07:56:25.989Z,102.07
2022-12-13T07:58:53.071Z,89.72
2022-12-13T08:01:20.185Z,106.13
2022-12-13T08:03:50.178Z,106.10
2022-12-13T08:06:19.228Z,101.25
2022-12-13T08:08:46.705Z,97.82
2022-12-13T08:11:15.371Z,95.45
2022-12-13T08:13:42.519Z,99.50
2022-12-13T08:16:27.157Z,105.90
2022-12-13T08:19:02.333Z,99.70
2022-12-13T08:21:58.515Z,107.57
2022-12-13T08:24:28.430Z,101.90
2022-12-13T08:26:57.338Z,105.60
2022-12-13T08:29:34.264Z,106.88
2022-12-13T08:32:06.585Z,104.95
2022-12-13T08:34:33.661Z,97.60
2022-12-13T08:37:01.487Z,101.28
2022-12-13T08:39:30.245Z,97.25
2022-12-13T08:42:16.194Z,95.00
2022-12-13T08:44:45.993Z,91.93
2022-12-13T08:47:22.674Z,94.05
2022-12-13T08:49:52.281Z,86.63
2022-12-13T08:52:19.577Z,91.03
2022-12-13T08:54:46.644Z,97.13
2022-12-13T08:57:13.796Z,88.57
2022-12-13T08:59:40.810Z,81.28
2022-12-13T09:02:09.729Z,84.10
2022-12-13T09:04:37.293Z,79.80
2022-12-13T09:07:04.502Z,79.60
2022-12-13T09:09:31.586Z,76.30
2022-12-13T09:11:59.487Z,77.75
2022-12-13T09:14:33.796Z,85.15
2022-12-13T09:17:03.041Z,83.90
2022-12-13T09:19:37.357Z,76.88
2022-12-13T09:22:05.044Z,66.90
2022-12-13T09:24:36.597Z,69.72
2022-12-13T09:27:09.718Z,69.78
2022-12-13T09:29:37.640Z,66.15
2022-12-13T09:32:05.042Z,70.65
2022-12-13T09:34:34.970Z,59.58
2022-12-13T09:37:02.177Z,64.53
2022-12-13T09:39:29.794Z,60.80
2022-12-13T09:42:01.193Z,65.10
2022-12-13T09:44:43.620Z,66.80
2022-12-13T09:47:15.148Z,63.88
2022-12-13T09:49:52.232Z,59.17
2022-12-13T09:52:21.934Z,60.13
2022-12-13T09:54:49.723Z,63.95
2022-12-13T09:57:32.757Z,60.42
2022-12-13T10:00:01.799Z,60.83
2022-12-13T10:02:29.913Z,57.75
2022-12-13T10:05:21.810Z,61.05
2022-12-13T10:07:50.380Z,53.75
2022-12-13T10:10:17.449Z,53.85
2022-12-13T10:12:44.494Z,52.60
2022-12-13T10:15:11.858Z,56.67
2022-12-13T10:17:39.775Z,54.92
2022-12-13T10:20:07.137Z,53.65
2022-12-13T10:22:34.260Z,54.55
2022-12-13T10:25:05.205Z,56.50
2022-12-13T10:27:36.632Z,50.67
2022-12-13T10:30:14.230Z,51.95
2022-12-13T10:32:53.937Z,49.67
2022-12-13T10:35:24.481Z,54.53
2022-12-13T10:40:32.766Z,48.95
2022-12-13T10:43:09.723Z,49.17
2022-12-13T10:45:36.814Z,52.72
2022-12-13T10:48:04.577Z,46.47
2022-12-13T10:50:31.791Z,45.50
2022-12-13T10:53:00.169Z,52.58
2022-12-13T10:55:34.414Z,48.85
2022-12-13T10:58:02.761Z,49.58
2022-12-13T11:00:35.005Z,50.28
2022-12-13T11:03:02.169Z,49.25
2022-12-13T11:05:30.053Z,51.63
2022-12-13T11:08:00.931Z,49.83
2022-12-13T11:10:29.258Z,45.05
2022-12-13T11:13:03.684Z,52.38
2022-12-13T11:15:31.084Z,51.10
2022-12-13T11:18:08.511Z,45.67
2022-12-13T11:20:36.993Z,53.58
2022-12-13T11:23:13.386Z,49.50
2022-12-13T11:25:44.593Z,49.78
2022-12-13T11:28:30.901Z,46.03
2022-12-13T11:31:22.879Z,51.55
2022-12-13T11:33:50.669Z,46.33
2022-12-13T11:36:40.546Z,47.05
2022-12-13T11:39:13.357Z,44.40
2022-12-13T11:42:14.610Z,50.67
2022-12-13T11:45:00.786Z,45.42
2022-12-13T11:47:58.173Z,49.50
2022-12-13T11:50:52.246Z,43.75
2022-12-13T11:53:28.695Z,45.28
2022-12-13T11:56:17.345Z,44.28
2022-12-13T11:59:07.961Z,47.25
2022-12-13T12:01:39.336Z,40.08
2022-12-13T12:04:25.317Z,43.15
2022-12-13T12:06:57.938Z,42.63
2022-12-13T12:09:24.945Z,44.63
2022-12-13T12:11:54.565Z,44.25
2022-12-13T12:14:27.767Z,43.90
2022-12-13T12:16:55.416Z,43.53
2022-12-13T12:19:24.140Z,44.25
2022-12-13T12:22:14.698Z,39.70
2022-12-13T12:25:01.425Z,37.88
2022-12-13T12:27:28.594Z,36.38
2022-12-13T12:29:55.689Z,37.97
2022-12-13T12:32:41.483Z,36.63
2022-12-13T12:35:27.730Z,34.85
2022-12-13T12:38:11.429Z,32.55
2022-12-13T12:43:37.752Z,37.35
2022-12-13T12:46:23.957Z,34.80
2022-12-13T12:49:01.855Z,38.33
2022-12-13T12:51:52.770Z,41.83
2022-12-13T12:54:43.380Z,43.03
2022-12-13T12:57:22.086Z,46.05
2022-12-13T12:59:49.297Z,42.17
2022-12-13T13:02:28.332Z,38.30
2022-12-13T13:04:57.431Z,44.67
2022-12-13T13:07:25.941Z,39.55
2022-12-13T13:09:55.141Z,37.10
2022-12-13T13:12:29.414Z,40.90
2022-12-13T13:14:56.859Z,39.10
2022-12-13T13:17:27.008Z,35.63
2022-12-13T13:20:14.332Z,42.67
2022-12-13T13:22:42.878Z,43.70
2022-12-13T13:25:14.657Z,47.95
2022-12-13T13:27:42.418Z,41.30
2022-12-13T13:30:15.697Z,42.53
2022-12-13T13:32:42.751Z,39.40
2022-12-13T13:35:37.614Z,42.20
2022-12-13T13:38:24.956Z,47.22
2022-12-13T13:40:52.052Z,36.60
2022-12-13T13:43:32.134Z,49.00
2022-12-13T13:48:40.339Z,42.58
2022-12-13T13:53:40.473Z,42.63
2022-12-13T13:56:17.358Z,46.35
2022-12-13T13:58:44.457Z,46.78
2022-12-13T14:01:30.160Z,45.13
2022-12-13T14:04:00.407Z,46.35
2022-12-13T14:06:39.486Z,49.63
2022-12-13T14:09:12.367Z,45.60
2022-12-13T14:11:51.823Z,45.20
2022-12-13T14:14:22.846Z,44.33
2022-12-13T14:16:49.995Z,48.92
2022-12-13T14:19:25.483Z,43.78
2022-12-13T14:22:01.851Z,48.90
2022-12-13T14:24:28.996Z,52.65
2022-12-13T14:27:11.225Z,51.53
2022-12-13T14:29:39.237Z,47.88
2022-12-13T14:32:26.728Z,50.65
2022-12-13T14:34:54.487Z,45.75
2022-12-13T14:37:27.110Z,48.35
2022-12-13T14:39:54.499Z,46.08
2022-12-13T14:42:33.794Z,49.00
2022-12-13T14:45:14.136Z,49.42
2022-12-13T14:47:41.683Z,49.92
2022-12-13T14:50:08.958Z,41.67
2022-12-13T14:52:36.559Z,44.60
2022-12-13T14:55:06.657Z,53.00
2022-12-13T14:57:34.310Z,46.47
2022-12-13T15:00:01.929Z,56.30
2022-12-13T15:02:31.822Z,52.20
2022-12-13T15:05:03.476Z,63.30
2022-12-13T15:07:41.172Z,59.30
2022-12-13T15:10:27.968Z,58.38
2022-12-13T15:12:55.109Z,55.20
2022-12-13T15:15:32.222Z,58.60
2022-12-13T15:18:25.999Z,62.53
2022-12-13T15:20:53.524Z,63.08
2022-12-13T15:23:20.534Z,62.45
2022-12-13T15:25:49.129Z,60.80
2022-12-13T15:28:21.363Z,59.90
2022-12-13T15:30:48.943Z,63.83
2022-12-13T15:33:27.613Z,65.53
2022-12-13T15:36:14.772Z,68.10
2022-12-13T15:39:00.073Z,68.20
2022-12-13T15:41:31.099Z,67.25
2022-12-13T15:43:58.927Z,67.70
2022-12-13T15:46:32.783Z,67.18
2022-12-13T15:49:00.733Z,64.43
2022-12-13T15:51:29.415Z,65.05
2022-12-13T15:54:07.628Z,61.72
2022-12-13T15:56:36.410Z,66.45
2022-12-13T15:59:04.389Z,62.75
2022-12-13T16:01:33.613Z,60.05
2022-12-13T16:04:03.532Z,66.30
2022-12-13T16:06:30.787Z,64.78
2022-12-13T16:08:59.103Z,54.53
2022-12-13T16:11:31.047Z,55.50
2022-12-13T16:14:25.862Z,68.00
2022-12-13T16:16:53.854Z,64.60
2022-12-13T16:19:20.950Z,68.53
2022-12-13T16:21:47.967Z,63.70
2022-12-13T16:24:15.027Z,59.17
2022-12-13T16:26:46.326Z,59.15
2022-12-13T16:29:14.350Z,57.38
2022-12-13T16:31:41.409Z,54.95
2022-12-13T16:34:08.614Z,65.30
2022-12-13T16:36:36.236Z,62.47
2022-12-13T16:39:04.025Z,68.75
2022-12-13T16:41:31.114Z,79.00
2022-12-13T16:44:01.858Z,82.20
2022-12-13T16:47:12.940Z,77.57
2022-12-13T16:49:24.496Z,77.57
2022-12-13T16:51:51.588Z,87.10
2022-12-13T16:54:19.398Z,82.13
2022-12-13T16:56:46.663Z,90.65
2022-12-13T16:59:20.523Z,74.55
2022-12-13T17:01:47.580Z,85.60
2022-12-13T17:04:20.138Z,79.88
2022-12-13T17:06:47.955Z,80.30
2022-12-13T17:09:15.070Z,86.65
2022-12-13T17:11:42.171Z,80.07
2022-12-13T17:14:09.173Z,84.93
2022-12-13T17:16:36.358Z,88.72
2022-12-13T17:19:03.455Z,85.30
2022-12-13T17:21:30.520Z,81.50
2022-12-13T17:23:57.923Z,75.35
2022-12-13T17:26:25.147Z,74.22
2022-12-13T17:28:52.242Z,77.85
2022-12-13T17:31:19.646Z,79.53
2022-12-13T17:33:46.942Z,87.70
2022-12-13T17:36:14.412Z,82.68
2022-12-13T17:38:45.573Z,80.93
2022-12-13T17:41:12.987Z,86.60
2022-12-13T17:43:40.633Z,88.95
2022-12-13T17:46:08.944Z,92.38
2022-12-13T17:48:40.800Z,101.97
2022-12-13T17:51:08.956Z,98.25
2022-12-13T17:53:36.262Z,93.95
2022-12-13T17:56:04.080Z,90.80
2022-12-13T17:58:32.312Z,94.75
2022-12-13T18:00:59.797Z,94.60
2022-12-13T18:03:27.250Z,96.80
2022-12-13T18:05:58.102Z,99.90
2022-12-13T18:08:25.469Z,80.32
2022-12-13T18:11:30.827Z,66.93
2022-12-13T18:13:46.149Z,84.15
2022-12-13T18:16:14.268Z,86.53
2022-12-13T18:18:41.464Z,82.65
2022-12-13T18:21:09.220Z,73.72
2022-12-13T18:23:36.345Z,78.53
2022-12-13T18:26:03.985Z,78.45
2022-12-13T18:28:31.105Z,78.15
2022-12-13T18:30:58.960Z,73.43
2022-12-13T18:33:26.469Z,65.25
2022-12-13T18:35:54.134Z,67.05
2022-12-13T18:38:23.291Z,60.05
2022-12-13T18:40:50.984Z,56.70
2022-12-13T18:43:18.530Z,58.38
2022-12-13T18:45:45.642Z,63.28
2022-12-13T18:48:12.797Z,59.15
2022-12-13T18:50:42.996Z,57.72
2022-12-13T18:53:14.214Z,65.63
2022-12-13T18:55:41.259Z,56.97
2022-12-13T18:58:08.268Z,59.28
2022-12-13T19:00:35.338Z,65.85
2022-12-13T19:03:02.422Z,62.25
2022-12-13T19:05:29.723Z,60.92
2022-12-13T19:07:56.724Z,64.07
2022-12-13T19:10:23.750Z,69.15
2022-12-13T19:12:51.019Z,66.85
2022-12-13T19:15:18.866Z,107.57
2022-12-13T19:17:47.860Z,56.80
2022-12-13T19:20:15.639Z,53.05
2022-12-13T19:22:42.697Z,58.45
2022-12-13T19:25:10.406Z,54.90
2022-12-13T19:27:37.628Z,54.75
2022-12-13T19:30:05.110Z,52.20
2022-12-13T19:32:33.041Z,48.53
2022-12-13T19:35:00.144Z,47.67
2022-12-13T19:37:27.218Z,46.10
2022-12-13T19:39:54.267Z,44.47
2022-12-13T19:42:21.363Z,43.20
2022-12-13T19:44:48.921Z,43.35
2022-12-13T19:47:16.404Z,40.50
2022-12-13T19:49:43.428Z,49.38
2022-12-13T19:52:10.477Z,47.20
2022-12-13T19:54:37.591Z,52.25
2022-12-13T19:57:07.441Z,50.25
2022-12-13T19:59:34.768Z,60.53
2022-12-13T20:02:02.038Z,56.65
2022-12-13T20:04:29.176Z,60.63
2022-12-13T20:06:56.906Z,69.60
2022-12-13T20:09:23.986Z,78.70
2022-12-13T20:11:51.091Z,68.93
2022-12-13T20:14:18.115Z,71.28
2022-12-13T20:16:45.146Z,79.28
2022-12-13T20:19:12.470Z,79.68
2022-12-13T20:21:39.546Z,79.50
2022-12-13T20:24:06.725Z,64.38
2022-12-13T20:26:33.878Z,61.42
2022-12-13T20:29:01.007Z,48.03
2022-12-13T20:31:29.078Z,49.70
2022-12-13T20:33:56.852Z,57.65
2022-12-13T20:36:26.519Z,55.45
2022-12-13T20:38:57.518Z,45.55
2022-12-13T20:41:25.350Z,48.03
2022-12-13T20:43:53.047Z,56.50
2022-12-13T20:46:20.403Z,49.45
2022-12-13T20:48:47.863Z,54.78
2022-12-13T20:51:16.175Z,53.45
2022-12-13T20:53:43.813Z,54.38
2022-12-13T20:56:11.677Z,54.00
2022-12-13T20:58:40.314Z,57.80
2022-12-13T21:01:07.565Z,53.30
2022-12-13T21:03:34.737Z,54.72
2022-12-13T21:06:01.764Z,49.28
2022-12-13T21:08:47.433Z,46.63
2022-12-13T21:11:26.666Z,51.08
2022-12-13T21:13:53.804Z,53.17
2022-12-13T21:16:21.049Z,56.50
2022-12-13T21:18:48.354Z,67.10
2022-12-13T21:21:15.527Z,59.95
2022-12-13T21:23:42.703Z,57.63
2022-12-13T21:26:10.088Z,58.17
2022-12-13T21:28:37.158Z,53.53
2022-12-13T21:31:04.892Z,58.67
2022-12-13T21:33:31.906Z,61.03
2022-12-13T21:35:58.915Z,66.15
2022-12-13T21:38:25.934Z,60.60
2022-12-13T21:40:52.987Z,55.80
2022-12-13T21:43:36.629Z,63.10
2022-12-13T21:46:10.475Z,57.42
2022-12-13T21:48:38.083Z,66.00
2022-12-13T21:51:05.222Z,63.20
2022-12-13T21:53:32.236Z,57.00
2022-12-13T21:56:17.754Z,59.65
2022-12-13T21:59:03.574Z,64.60
2022-12-13T22:02:00.334Z,71.28
2022-12-13T22:04:27.435Z,75.65
2022-12-13T22:06:54.439Z,79.35
2022-12-13T22:09:21.545Z,84.07
2022-12-13T22:11:48.573Z,78.90
2022-12-13T22:14:15.666Z,80.15
2022-12-13T22:16:42.785Z,72.90
2022-12-13T22:19:10.658Z,66.32
2022-12-13T22:21:37.715Z,58.40
2022-12-13T22:24:04.858Z,57.85
2022-12-13T22:26:32.012Z,59.67
2022-12-13T22:28:59.246Z,60.45
2022-12-13T22:31:29.717Z,58.30
2022-12-13T22:33:57.162Z,57.00
2022-12-13T22:36:24.319Z,55.63
2022-12-13T22:38:51.422Z,54.50
2022-12-13T22:41:18.467Z,57.10
2022-12-13T22:43:45.617Z,53.97
2022-12-13T22:46:19.269Z,50.92
2022-12-13T22:48:46.593Z,51.90
2022-12-13T22:51:14.517Z,50.65
2022-12-13T22:53:41.740Z,51.33
2022-12-13T22:56:12.726Z,54.70
2022-12-13T22:58:39.998Z,52.78
2022-12-13T23:01:11.086Z,55.45
2022-12-13T23:03:38.689Z,49.25
2022-12-13T23:06:15.642Z,45.13
2022-12-13T23:08:43.639Z,46.60
2022-12-13T23:11:29.712Z,48.42
2022-12-13T23:13:57.632Z,52.25
2022-12-13T23:16:25.509Z,49.10
2022-12-13T23:19:05.260Z,48.55
2022-12-13T23:21:39.653Z,49.38
2022-12-13T23:24:06.872Z,48.70
2022-12-13T23:26:34.289Z,55.50
2022-12-13T23:29:02.277Z,52.22
2022-12-13T23:31:29.959Z,51.30
2022-12-13T23:33:56.999Z,49.65
2022-12-13T23:36:24.484Z,50.80
2022-12-13T23:38:51.693Z,47.70
2022-12-13T23:41:23.401Z,50.90
2022-12-13T23:43:50.991Z,51.30
2022-12-13T23:46:19.156Z,50.88
2022-12-13T23:48:46.332Z,46.15
2022-12-13T23:51:13.875Z,44.83
2022-12-13T23:53:40.996Z,38.85
2022-12-13T23:56:09.301Z,39.90
2022-12-13T23:58:37.062Z,40.78
